Time;durP1;ratioP1;P1;durP2;ratioP2;P2;SDS_P1;SDS_P2;PMS_P1;PMS_P2;Temp;Humidity;BMP_temperature;BMP_pressure;BME280_temperature;BME280_humidity;BME280_pressure;Samples;Min_cycle;Max_cycle;Signal;HPM_P1;HPM_P2
2023/03/01 00:01:39;;;;;;;21.93;12.87;;;-0.60;99.90;;;;;;5083651;28;20516;-68
2023/03/01 00:04:06;;;;;;;20.03;13.00;;;-0.60;99.90;;;;;;5080932;28;20464;-68
2023/03/01 00:06:32;;;;;;;24.03;12.50;;;-0.50;99.90;;;;;;5077032;28;20939;-68
2023/03/01 00:08:59;;;;;;;26.83;14.03;;;-0.60;99.90;;;;;;5081435;28;20513;-68
2023/03/01 00:11:28;;;;;;;22.60;14.03;;;-0.60;99.90;;;;;;5077598;28;20494;-68
2023/03/01 00:13:58;;;;;;;29.10;13.87;;;-0.70;99.90;;;;;;5082530;28;20479;-68
2023/03/01 00:16:27;;;;;;;24.83;13.47;;;-0.80;99.90;;;;;;5080202;28;20451;-68
2023/03/01 00:18:55;;;;;;;25.50;14.53;;;-0.80;99.90;;;;;;5083329;28;20479;-68
2023/03/01 00:21:22;;;;;;;23.40;14.77;;;-0.90;99.90;;;;;;5084226;28;20447;-68
2023/03/01 00:23:49;;;;;;;25.93;13.03;;;-0.90;99.90;;;;;;5081071;28;20479;-69
2023/03/01 00:26:17;;;;;;;20.83;13.47;;;-1.00;99.90;;;;;;5077593;28;20882;-68
2023/03/01 00:28:44;;;;;;;29.60;14.60;;;-1.00;99.90;;;;;;5079239;28;20529;-68
2023/03/01 00:31:17;;;;;;;23.80;13.30;;;-1.00;99.90;;;;;;5087798;28;20451;-68
2023/03/01 00:33:44;;;;;;;26.90;13.17;;;-1.10;99.90;;;;;;5082927;28;20503;-68
2023/03/01 00:36:12;;;;;;;22.83;13.60;;;-1.10;99.90;;;;;;5078455;28;20807;-68
2023/03/01 00:38:40;;;;;;;25.63;14.40;;;-1.10;99.90;;;;;;5085386;28;20541;-68
2023/03/01 00:41:08;;;;;;;24.23;13.47;;;-1.00;99.90;;;;;;5080234;28;20452;-68
2023/03/01 00:43:36;;;;;;;31.43;14.20;;;-1.10;99.90;;;;;;5085225;28;20533;-68
2023/03/01 00:46:04;;;;;;;28.03;14.50;;;-1.20;99.90;;;;;;5087299;28;20464;-68
2023/03/01 00:48:31;;;;;;;26.70;15.40;;;-1.20;99.90;;;;;;5077931;28;20448;-68
2023/03/01 00:51:04;;;;;;;26.27;13.73;;;-1.20;99.90;;;;;;5082100;28;20512;-68
2023/03/01 00:53:31;;;;;;;22.60;14.20;;;-1.20;99.90;;;;;;5081053;28;20476;-68
2023/03/01 00:55:58;;;;;;;23.00;14.37;;;-1.20;99.90;;;;;;5085104;28;20462;-68
2023/03/01 00:58:25;;;;;;;27.40;14.00;;;-1.20;99.90;;;;;;5079773;28;20637;-68
2023/03/01 01:00:52;;;;;;;27.40;15.20;;;-1.10;99.90;;;;;;5078185;28;20505;-68
2023/03/01 01:03:18;;;;;;;25.43;14.60;;;-1.10;99.90;;;;;;5078808;28;20475;-68
2023/03/01 01:05:46;;;;;;;24.33;14.03;;;-1.10;99.90;;;;;;5080064;28;20444;-68
2023/03/01 01:08:13;;;;;;;30.93;14.80;;;-1.10;99.90;;;;;;5078390;28;20506;-68
2023/03/01 01:10:40;;;;;;;26.83;14.53;;;-1.10;99.90;;;;;;5079239;28;20501;-68
2023/03/01 01:13:06;;;;;;;25.77;15.33;;;-1.10;99.90;;;;;;5079284;28;20480;-68
2023/03/01 01:15:35;;;;;;;28.30;15.27;;;-1.10;99.90;;;;;;5083012;28;20516;-68
2023/03/01 01:18:01;;;;;;;25.57;14.50;;;-1.00;99.90;;;;;;5080972;28;20488;-68
2023/03/01 01:20:28;;;;;;;27.13;14.43;;;-1.10;99.90;;;;;;5079512;28;20460;-68
2023/03/01 01:22:56;;;;;;;26.00;14.10;;;-1.10;99.90;;;;;;5078982;28;20468;-67
2023/03/01 01:25:24;;;;;;;31.57;15.10;;;-1.10;99.90;;;;;;5078980;28;20447;-68
2023/03/01 01:27:51;;;;;;;26.53;14.20;;;-1.20;99.90;;;;;;5076292;28;20463;-68
2023/03/01 01:30:18;;;;;;;24.37;14.43;;;-1.20;99.90;;;;;;5087225;28;20509;-68
2023/03/01 01:32:44;;;;;;;26.30;14.80;;;-1.30;99.90;;;;;;5081205;28;20482;-68
2023/03/01 01:35:11;;;;;;;27.93;14.80;;;-1.30;99.90;;;;;;5077158;28;21121;-68
2023/03/01 01:37:38;;;;;;;22.90;14.10;;;-1.30;99.90;;;;;;5084685;28;20451;-68
2023/03/01 01:40:07;;;;;;;24.57;15.10;;;-1.30;99.90;;;;;;5079051;28;20836;-68
2023/03/01 01:42:33;;;;;;;27.17;15.10;;;-1.40;99.90;;;;;;5078059;28;20452;-68
2023/03/01 01:45:30;;;;;;;29.07;15.17;;;-1.40;99.90;;;;;;5079641;28;20516;-67
2023/03/01 01:47:59;;;;;;;28.27;14.30;;;-1.50;99.90;;;;;;5073233;28;20542;-67
2023/03/01 01:50:27;;;;;;;27.03;15.23;;;-1.50;99.90;;;;;;5076689;28;20504;-68
2023/03/01 01:52:55;;;;;;;28.73;14.57;;;-1.50;99.90;;;;;;5077210;28;20472;-68
2023/03/01 01:55:27;;;;;;;26.67;14.60;;;-1.50;99.90;;;;;;5077269;28;20452;-68
2023/03/01 01:57:57;;;;;;;27.73;14.13;;;-1.50;99.90;;;;;;5074799;28;20456;-68
2023/03/01 02:00:26;;;;;;;24.33;14.03;;;-1.50;99.90;;;;;;5084932;28;20455;-68
2023/03/01 02:02:59;;;;;;;23.80;14.13;;;-1.50;99.90;;;;;;5082317;28;20999;-67
2023/03/01 02:05:32;;;;;;;31.07;15.83;;;-1.60;99.90;;;;;;5079218;28;21041;-67
2023/03/01 02:08:00;;;;;;;25.70;15.17;;;-1.60;99.90;;;;;;5077079;28;20455;-68
2023/03/01 02:10:29;;;;;;;27.07;15.40;;;-1.60;99.90;;;;;;5078404;28;20882;-68
2023/03/01 02:12:56;;;;;;;26.70;14.97;;;-1.60;99.90;;;;;;5079684;28;20991;-68
2023/03/01 02:15:24;;;;;;;25.77;14.80;;;-1.60;99.90;;;;;;5079764;28;20455;-68
2023/03/01 02:17:51;;;;;;;29.10;15.20;;;-1.70;99.90;;;;;;5082170;28;20448;-67
2023/03/01 02:20:25;;;;;;;28.87;15.97;;;-1.70;99.90;;;;;;5077612;28;20479;-67
2023/03/01 02:22:54;;;;;;;29.27;15.50;;;-1.70;99.90;;;;;;5076763;28;20526;-67
2023/03/01 02:25:41;;;;;;;26.50;14.90;;;-1.60;99.90;;;;;;5079624;28;21038;-68
2023/03/01 02:28:12;;;;;;;26.80;15.27;;;-1.60;99.90;;;;;;5079302;28;20514;-68
2023/03/01 02:31:41;;;;;;;25.37;14.73;;;-1.70;99.90;;;;;;5074967;28;20448;-68
2023/03/01 02:33:27;;;;;;;28.43;14.73;;;-1.60;99.90;;;;;;5082683;28;21009;-68
2023/03/01 02:35:55;;;;;;;30.30;16.00;;;-1.60;99.90;;;;;;5081646;28;20452;-68
2023/03/01 02:38:23;;;;;;;28.73;15.43;;;-1.70;99.90;;;;;;5076273;28;20482;-68
2023/03/01 02:40:51;;;;;;;31.10;14.07;;;-1.60;99.90;;;;;;5073633;28;20886;-67
2023/03/01 02:43:23;;;;;;;26.30;14.83;;;-1.70;99.90;;;;;;5076870;28;20525;-68
2023/03/01 02:45:53;;;;;;;26.83;15.00;;;-1.70;99.90;;;;;;5083849;28;20452;-67
2023/03/01 02:48:20;;;;;;;39.53;16.43;;;-1.70;99.90;;;;;;5083503;28;20453;-68
2023/03/01 02:51:04;;;;;;;28.40;15.50;;;-1.70;99.90;;;;;;5078062;28;21029;-68
2023/03/01 02:53:40;;;;;;;30.80;15.57;;;-1.80;99.90;;;;;;5078272;28;20471;-68
2023/03/01 02:56:12;;;;;;;31.30;16.23;;;-1.80;99.90;;;;;;5080286;28;20451;-68
2023/03/01 02:58:45;;;;;;;28.63;15.33;;;-1.80;99.90;;;;;;5072901;28;20487;-68
2023/03/01 03:01:14;;;;;;;28.47;14.03;;;-1.80;99.90;;;;;;5074179;28;20467;-68
2023/03/01 03:03:42;;;;;;;27.60;15.30;;;-1.80;99.90;;;;;;5081974;28;20482;-68
2023/03/01 03:06:09;;;;;;;30.33;15.07;;;-1.80;99.90;;;;;;5079551;28;20808;-68
2023/03/01 03:08:36;;;;;;;30.70;14.70;;;-1.80;99.90;;;;;;5078450;28;20933;-68
2023/03/01 03:11:03;;;;;;;24.90;14.17;;;-1.80;99.90;;;;;;5080992;28;20482;-68
2023/03/01 03:13:29;;;;;;;42.57;15.97;;;-1.80;99.90;;;;;;5081131;28;20467;-67
2023/03/01 03:15:57;;;;;;;28.80;15.23;;;-1.90;99.90;;;;;;5083180;28;20460;-68
2023/03/01 03:18:26;;;;;;;31.03;16.20;;;-1.90;99.90;;;;;;5081776;28;20818;-68
2023/03/01 03:20:54;;;;;;;27.47;14.83;;;-1.90;99.90;;;;;;5083475;28;20458;-68
2023/03/01 03:23:21;;;;;;;31.10;17.10;;;-1.70;99.90;;;;;;5081077;28;20468;-67
2023/03/01 03:25:49;;;;;;;27.33;14.97;;;-1.90;99.90;;;;;;5083036;28;20459;-67
2023/03/01 03:28:16;;;;;;;28.57;15.70;;;-1.80;99.90;;;;;;5079600;28;20456;-67
2023/03/01 03:30:44;;;;;;;27.27;16.03;;;-1.80;99.90;;;;;;5084302;28;20857;-68
2023/03/01 03:33:12;;;;;;;31.50;15.50;;;-1.80;99.90;;;;;;5077722;28;20991;-68
2023/03/01 03:35:42;;;;;;;29.63;15.33;;;-1.80;99.90;;;;;;5080536;28;20451;-68
2023/03/01 03:38:15;;;;;;;28.47;15.73;;;-1.80;99.90;;;;;;5077177;28;20880;-68
2023/03/01 03:40:44;;;;;;;33.33;16.20;;;-1.80;99.90;;;;;;5076087;28;20490;-68
2023/03/01 03:43:15;;;;;;;28.93;15.70;;;-2.00;99.90;;;;;;5075249;28;20843;-68
2023/03/01 03:45:42;;;;;;;29.47;16.50;;;-1.80;99.90;;;;;;5077310;28;20510;-68
2023/03/01 03:48:10;;;;;;;31.77;15.87;;;-2.00;99.90;;;;;;5079870;28;20509;-67
2023/03/01 03:50:37;;;;;;;30.73;16.00;;;-1.90;99.90;;;;;;5075423;28;20456;-68
2023/03/01 03:53:07;;;;;;;27.53;15.40;;;-2.00;99.90;;;;;;5075160;28;20475;-67
2023/03/01 03:55:35;;;;;;;35.37;18.17;;;-2.00;99.90;;;;;;5077616;28;20870;-67
2023/03/01 03:58:06;;;;;;;34.50;15.60;;;-2.00;99.90;;;;;;5072882;28;20883;-67
2023/03/01 04:00:33;;;;;;;28.33;15.37;;;-2.00;99.90;;;;;;5079762;28;20868;-67
2023/03/01 04:03:00;;;;;;;35.43;16.23;;;-2.10;99.90;;;;;;5081192;28;20467;-68
2023/03/01 04:05:28;;;;;;;30.73;15.40;;;-2.10;99.90;;;;;;5085348;28;20456;-67
2023/03/01 04:08:00;;;;;;;34.20;16.40;;;-2.10;99.90;;;;;;5077624;28;20521;-67
2023/03/01 04:10:30;;;;;;;29.67;16.00;;;-2.10;99.90;;;;;;5078950;28;20444;-67
2023/03/01 04:12:57;;;;;;;28.70;15.73;;;-2.20;99.90;;;;;;5078547;28;20528;-68
2023/03/01 04:15:24;;;;;;;30.27;15.70;;;-2.10;99.90;;;;;;5080917;28;21369;-67
2023/03/01 04:17:53;;;;;;;29.90;16.23;;;-2.10;99.90;;;;;;5084389;28;20511;-67
2023/03/01 04:20:24;;;;;;;30.27;16.50;;;-2.10;99.90;;;;;;5079935;28;20483;-68
2023/03/01 04:22:52;;;;;;;31.80;16.20;;;-2.10;99.90;;;;;;5084061;28;21039;-68
2023/03/01 04:25:19;;;;;;;37.40;16.93;;;-2.20;99.90;;;;;;5082356;28;20452;-68
2023/03/01 04:27:47;;;;;;;27.70;15.97;;;-2.20;99.90;;;;;;5085255;28;20456;-68
2023/03/01 04:30:14;;;;;;;29.73;16.20;;;-2.20;99.90;;;;;;5079887;28;20502;-68
2023/03/01 04:32:40;;;;;;;27.57;15.27;;;-2.20;99.90;;;;;;5083227;28;20459;-67
2023/03/01 04:35:08;;;;;;;31.07;15.47;;;-2.20;99.90;;;;;;5086794;28;20455;-68
2023/03/01 04:37:35;;;;;;;29.97;15.60;;;-2.20;99.90;;;;;;5078080;28;20447;-68
2023/03/01 04:40:12;;;;;;;32.90;15.83;;;-2.20;99.90;;;;;;5081094;28;20505;-68
2023/03/01 04:42:38;;;;;;;26.07;14.30;;;-2.10;99.90;;;;;;5081738;28;20516;-68
2023/03/01 04:45:12;;;;;;;24.10;14.30;;;-2.10;99.90;;;;;;5083041;28;21029;-68
2023/03/01 04:47:40;;;;;;;33.53;15.50;;;-2.10;99.90;;;;;;5087524;28;20524;-68
2023/03/01 04:50:07;;;;;;;29.13;15.50;;;-2.10;99.90;;;;;;5080436;28;20444;-68
2023/03/01 04:52:34;;;;;;;29.70;14.97;;;-2.10;99.90;;;;;;5080214;28;20459;-67
2023/03/01 04:55:01;;;;;;;34.80;15.17;;;-2.00;99.90;;;;;;5077076;28;20867;-68
2023/03/01 04:57:27;;;;;;;27.77;15.30;;;-1.90;99.90;;;;;;5086724;28;20456;-68
2023/03/01 04:59:54;;;;;;;36.10;16.40;;;-2.00;99.90;;;;;;5079924;28;20557;-68
2023/03/01 05:02:22;;;;;;;31.27;15.40;;;-2.00;99.90;;;;;;5077844;28;20518;-68
2023/03/01 05:04:49;;;;;;;27.10;16.10;;;-1.90;99.90;;;;;;5078044;28;20530;-68
2023/03/01 05:07:19;;;;;;;32.20;16.03;;;-2.00;99.90;;;;;;5080502;28;20504;-68
2023/03/01 05:09:46;;;;;;;26.30;14.10;;;-2.00;99.90;;;;;;5079617;28;20495;-68
2023/03/01 05:12:13;;;;;;;30.47;16.63;;;-2.00;99.90;;;;;;5079779;28;20451;-68
2023/03/01 05:14:39;;;;;;;30.67;16.33;;;-2.00;99.90;;;;;;5074960;28;20480;-68
2023/03/01 05:17:06;;;;;;;27.93;14.77;;;-1.90;99.90;;;;;;5085613;28;20473;-68
2023/03/01 05:19:35;;;;;;;30.40;16.23;;;-1.90;99.90;;;;;;5081287;28;20475;-68
2023/03/01 05:22:05;;;;;;;28.43;14.60;;;-1.90;99.90;;;;;;5079857;28;20490;-68
2023/03/01 05:24:33;;;;;;;32.03;16.27;;;-1.80;99.90;;;;;;5084341;28;20988;-68
2023/03/01 05:27:00;;;;;;;29.13;15.67;;;-1.90;99.90;;;;;;5083240;28;20444;-68
2023/03/01 05:29:29;;;;;;;30.57;14.87;;;-1.90;99.90;;;;;;5077722;28;20518;-68
2023/03/01 05:31:58;;;;;;;32.07;15.83;;;-1.80;99.90;;;;;;5078187;28;20868;-68
2023/03/01 05:34:25;;;;;;;29.83;15.10;;;-1.80;99.90;;;;;;5079483;28;20473;-68
2023/03/01 05:36:54;;;;;;;35.77;16.23;;;-1.80;99.90;;;;;;5084891;28;20516;-67
2023/03/01 05:39:22;;;;;;;27.47;14.83;;;-1.70;99.90;;;;;;5072732;28;20467;-67
2023/03/01 05:41:48;;;;;;;29.97;14.90;;;-1.80;99.90;;;;;;5080379;28;20479;-68
2023/03/01 05:44:15;;;;;;;35.70;16.47;;;-1.80;99.90;;;;;;5080162;28;20533;-67
2023/03/01 05:46:42;;;;;;;34.77;17.07;;;-1.80;99.90;;;;;;5076779;28;20542;-68
2023/03/01 05:49:09;;;;;;;29.20;15.93;;;-1.80;99.90;;;;;;5080742;28;20451;-68
2023/03/01 05:51:35;;;;;;;33.50;16.73;;;-1.80;99.90;;;;;;5079986;28;20504;-68
2023/03/01 05:54:05;;;;;;;30.73;15.57;;;-1.80;99.90;;;;;;5078663;28;20479;-68
2023/03/01 05:56:34;;;;;;;33.17;15.97;;;-1.80;99.90;;;;;;5080230;28;20459;-68
2023/03/01 05:59:01;;;;;;;33.07;15.77;;;-1.90;99.90;;;;;;5078809;28;20455;-68
2023/03/01 06:01:27;;;;;;;30.60;15.40;;;-1.90;99.90;;;;;;5075208;28;20892;-68
2023/03/01 06:03:54;;;;;;;30.43;16.50;;;-1.90;99.90;;;;;;5084708;28;20532;-68
2023/03/01 06:06:21;;;;;;;25.03;14.80;;;-1.90;99.90;;;;;;5083371;28;20447;-68
2023/03/01 06:08:47;;;;;;;34.53;15.90;;;-1.90;99.90;;;;;;5083170;28;20504;-68
2023/03/01 06:11:15;;;;;;;31.33;16.00;;;-1.90;99.90;;;;;;5081974;28;20599;-68
2023/03/01 06:13:42;;;;;;;30.00;15.10;;;-1.80;99.90;;;;;;5082945;28;20496;-68
2023/03/01 06:16:09;;;;;;;37.80;18.00;;;-1.90;99.90;;;;;;5081072;28;20866;-68
2023/03/01 06:18:36;;;;;;;39.03;17.20;;;-1.90;99.90;;;;;;5074158;28;20460;-66
2023/03/01 06:21:04;;;;;;;31.63;16.40;;;-1.90;99.90;;;;;;5079853;28;20486;-69
2023/03/01 06:23:31;;;;;;;34.77;16.53;;;-1.80;99.90;;;;;;5076302;28;20984;-69
2023/03/01 06:25:58;;;;;;;34.07;14.13;;;-1.80;99.90;;;;;;5080564;28;20451;-74
2023/03/01 06:28:26;;;;;;;37.20;19.10;;;-1.50;99.90;;;;;;5077077;28;20463;-74
2023/03/01 06:30:53;;;;;;;35.73;17.70;;;-0.20;99.90;;;;;;5076506;28;21170;-74
2023/03/01 06:33:21;;;;;;;28.17;16.90;;;0.70;99.90;;;;;;5077456;28;20467;-75
2023/03/01 06:35:48;;;;;;;31.70;17.83;;;1.40;99.90;;;;;;5077394;28;20531;-74
2023/03/01 06:38:17;;;;;;;27.70;15.67;;;1.80;99.90;;;;;;5076632;28;20534;-74
2023/03/01 06:40:43;;;;;;;25.13;15.40;;;2.20;99.90;;;;;;5076283;28;20486;-74
2023/03/01 06:43:10;;;;;;;26.40;14.93;;;2.60;99.90;;;;;;5076597;28;20479;-74
2023/03/01 06:45:38;;;;;;;25.70;15.60;;;2.90;99.90;;;;;;5076263;28;20460;-70
2023/03/01 06:48:05;;;;;;;33.33;16.60;;;2.90;99.90;;;;;;5075909;28;20496;-69
2023/03/01 06:50:32;;;;;;;32.70;16.10;;;2.60;99.90;;;;;;5075961;28;20451;-69
2023/03/01 06:52:59;;;;;;;37.97;15.90;;;2.40;99.90;;;;;;5076796;28;20476;-69
2023/03/01 06:55:26;;;;;;;29.40;15.30;;;2.20;99.90;;;;;;5076269;28;20452;-69
2023/03/01 06:57:56;;;;;;;31.63;16.67;;;1.90;99.90;;;;;;5076215;28;21013;-69
2023/03/01 07:00:24;;;;;;;26.77;16.50;;;1.60;99.90;;;;;;5075840;28;20489;-69
2023/03/01 07:02:52;;;;;;;33.03;15.33;;;1.70;99.90;;;;;;5075740;28;20488;-69
2023/03/01 07:05:19;;;;;;;30.80;16.77;;;1.90;99.90;;;;;;5076182;28;20455;-69
2023/03/01 07:07:45;;;;;;;29.37;15.97;;;2.30;99.90;;;;;;5076671;28;20448;-68
2023/03/01 07:10:13;;;;;;;36.20;18.00;;;2.70;99.90;;;;;;5076203;28;20461;-69
2023/03/01 07:12:41;;;;;;;31.40;15.33;;;3.10;99.90;;;;;;5076169;28;20873;-70
2023/03/01 07:15:10;;;;;;;28.90;15.80;;;3.40;99.90;;;;;;5075577;28;20521;-69
2023/03/01 07:17:36;;;;;;;29.80;15.13;;;3.90;99.90;;;;;;5076373;28;20459;-69
2023/03/01 07:20:05;;;;;;;28.30;15.20;;;4.20;99.90;;;;;;5075878;28;20488;-69
2023/03/01 07:22:32;;;;;;;31.63;17.43;;;4.30;99.90;;;;;;5075699;28;20449;-69
2023/03/01 07:24:59;;;;;;;28.53;16.40;;;4.40;99.90;;;;;;5075982;28;20960;-69
2023/03/01 07:27:25;;;;;;;29.30;15.40;;;4.50;99.90;;;;;;5076163;28;20523;-69
2023/03/01 07:29:52;;;;;;;28.77;16.00;;;4.50;99.90;;;;;;5076290;28;20487;-69
2023/03/01 07:32:18;;;;;;;31.57;15.93;;;5.00;99.90;;;;;;5076129;28;20945;-70
2023/03/01 07:34:45;;;;;;;27.07;15.17;;;5.30;99.90;;;;;;5079347;28;20903;-70
2023/03/01 07:37:13;;;;;;;27.47;17.10;;;5.30;99.90;;;;;;5079755;28;20450;-70
2023/03/01 07:39:40;;;;;;;33.00;15.67;;;5.20;99.90;;;;;;5079680;28;20469;-70
2023/03/01 07:42:06;;;;;;;31.73;15.10;;;5.20;99.90;;;;;;5079919;28;20448;-69
2023/03/01 07:44:33;;;;;;;28.77;16.03;;;5.00;99.90;;;;;;5079405;28;21000;-69
2023/03/01 07:47:00;;;;;;;28.77;16.50;;;5.30;99.90;;;;;;5079303;28;20461;-69
2023/03/01 07:49:27;;;;;;;31.77;17.67;;;5.40;99.90;;;;;;5079196;28;20522;-69
2023/03/01 07:51:53;;;;;;;26.60;15.40;;;5.00;99.90;;;;;;5079717;28;20552;-70
2023/03/01 07:54:21;;;;;;;27.30;15.10;;;5.30;99.90;;;;;;5079224;28;20999;-70
2023/03/01 07:56:48;;;;;;;33.50;16.60;;;5.60;99.90;;;;;;5079621;28;20463;-70
2023/03/01 07:59:14;;;;;;;25.63;13.57;;;5.70;99.90;;;;;;5079596;28;20512;-75
2023/03/01 08:01:41;;;;;;;30.42;17.60;;;6.70;99.90;;;;;;5077665;28;20454;-70
2023/03/01 08:04:08;;;;;;;27.07;16.73;;;6.90;99.90;;;;;;5078663;28;20279;-70
2023/03/01 08:06:37;;;;;;;24.40;15.10;;;6.20;99.90;;;;;;5079102;28;20463;-71
2023/03/01 08:09:03;;;;;;;27.67;16.80;;;5.60;99.90;;;;;;5079556;28;20451;-70
2023/03/01 08:11:31;;;;;;;30.53;17.70;;;5.20;99.90;;;;;;5078326;28;20456;-70
2023/03/01 08:13:58;;;;;;;30.17;16.50;;;4.90;99.90;;;;;;5079347;28;20538;-71
2023/03/01 08:16:25;;;;;;;25.87;16.20;;;4.90;99.90;;;;;;5079425;28;20457;-71
2023/03/01 08:18:51;;;;;;;28.27;15.87;;;4.70;99.90;;;;;;5079075;28;20523;-71
2023/03/01 08:21:18;;;;;;;32.40;16.93;;;4.60;99.90;;;;;;5078373;28;20506;-71
2023/03/01 08:23:46;;;;;;;27.30;15.93;;;4.10;99.90;;;;;;5079050;28;20977;-70
2023/03/01 08:26:14;;;;;;;25.97;15.60;;;3.80;99.90;;;;;;5078123;28;20464;-70
2023/03/01 08:28:42;;;;;;;32.27;15.73;;;3.80;99.90;;;;;;5079558;28;20452;-71
2023/03/01 08:31:17;;;;;;;26.07;15.70;;;3.90;99.90;;;;;;5079186;28;20453;-70
2023/03/01 08:33:44;;;;;;;26.07;15.30;;;4.00;99.90;;;;;;5079212;28;20462;-71
2023/03/01 08:36:11;;;;;;;32.47;15.87;;;4.20;99.90;;;;;;5079007;28;20440;-71
2023/03/01 08:38:37;;;;;;;23.70;14.40;;;4.30;99.90;;;;;;5078257;28;21024;-71
2023/03/01 08:41:04;;;;;;;36.83;17.00;;;4.40;99.90;;;;;;5078547;28;20475;-70
2023/03/01 08:43:32;;;;;;;26.03;15.50;;;4.50;99.90;;;;;;5076805;28;21216;-71
2023/03/01 08:46:00;;;;;;;23.73;13.70;;;4.50;99.90;;;;;;5078338;28;20861;-70
2023/03/01 08:48:29;;;;;;;26.27;15.77;;;4.70;99.90;;;;;;5077877;28;20215;-70
2023/03/01 08:50:55;;;;;;;29.50;14.90;;;4.80;99.90;;;;;;5077605;28;20534;-70
2023/03/01 08:53:22;;;;;;;27.63;15.50;;;5.00;99.90;;;;;;5078062;28;20471;-70
2023/03/01 08:55:49;;;;;;;25.47;15.73;;;5.20;99.90;;;;;;5078375;28;20490;-70
2023/03/01 08:58:15;;;;;;;30.30;16.17;;;5.30;99.90;;;;;;5078360;28;20464;-70
2023/03/01 09:00:42;;;;;;;25.03;14.30;;;5.50;99.90;;;;;;5077963;28;20484;-70
2023/03/01 09:03:10;;;;;;;27.60;15.67;;;5.80;99.90;;;;;;5077764;28;21048;-70
2023/03/01 09:05:36;;;;;;;27.40;14.90;;;5.80;99.90;;;;;;5077429;28;20464;-70
2023/03/01 09:08:03;;;;;;;26.00;15.57;;;6.00;99.90;;;;;;5078991;28;20462;-70
2023/03/01 09:10:30;;;;;;;31.07;17.20;;;6.20;99.90;;;;;;5077809;28;21209;-70
2023/03/01 09:12:57;;;;;;;28.00;14.53;;;6.30;99.90;;;;;;5077879;28;20475;-70
2023/03/01 09:15:23;;;;;;;27.40;15.87;;;6.30;99.90;;;;;;5077601;28;21005;-70
2023/03/01 09:17:50;;;;;;;25.83;14.70;;;6.50;99.90;;;;;;5077507;28;20513;-71
2023/03/01 09:20:18;;;;;;;30.33;16.00;;;6.50;99.90;;;;;;5077418;28;20449;-70
2023/03/01 09:22:45;;;;;;;23.87;14.30;;;6.40;99.90;;;;;;5078022;28;20464;-70
2023/03/01 09:25:11;;;;;;;22.63;13.97;;;6.30;99.90;;;;;;5078099;28;20460;-71
2023/03/01 09:27:38;;;;;;;25.60;15.10;;;6.20;99.90;;;;;;5077183;28;20444;-70
2023/03/01 09:30:05;;;;;;;23.53;14.10;;;6.20;99.90;;;;;;5077384;28;20874;-68
2023/03/01 09:32:32;;;;;;;20.67;14.00;;;6.30;99.90;;;;;;5077774;28;20988;-69
2023/03/01 09:35:04;;;;;;;25.30;14.17;;;6.30;99.90;;;;;;5077991;28;20534;-68
2023/03/01 09:37:32;;;;;;;22.57;13.47;;;6.50;99.90;;;;;;5077160;28;20965;-69
2023/03/01 09:39:59;;;;;;;24.90;14.97;;;6.50;99.90;;;;;;5076925;28;20462;-69
2023/03/01 09:42:28;;;;;;;25.37;14.90;;;6.70;99.90;;;;;;5077024;28;20489;-69
2023/03/01 09:45:01;;;;;;;24.53;14.13;;;6.80;99.90;;;;;;5077538;28;20493;-69
2023/03/01 09:47:30;;;;;;;27.00;15.03;;;6.60;99.90;;;;;;5076551;28;21055;-69
2023/03/01 09:50:05;;;;;;;23.77;13.73;;;6.30;99.90;;;;;;5076800;28;20975;-69
2023/03/01 09:52:41;;;;;;;23.30;14.10;;;6.10;99.90;;;;;;5076725;28;20455;-69
2023/03/01 09:55:12;;;;;;;25.50;14.87;;;6.30;99.90;;;;;;5077218;28;20459;-69
2023/03/01 09:57:46;;;;;;;24.25;15.18;;;6.60;99.90;;;;;;5075814;28;20445;-69
2023/03/01 10:00:24;;;;;;;22.37;14.33;;;7.10;99.90;;;;;;5077182;28;20215;-69
2023/03/01 10:02:59;;;;;;;23.80;14.43;;;7.50;99.90;;;;;;5077011;28;20547;-69
2023/03/01 10:05:37;;;;;;;20.33;14.00;;;7.80;99.90;;;;;;5076465;28;20465;-69
2023/03/01 10:08:29;;;;;;;22.37;13.90;;;8.30;99.90;;;;;;5076998;28;21025;-71
2023/03/01 10:10:56;;;;;;;31.83;15.20;;;8.60;99.90;;;;;;5077001;28;20861;-69
2023/03/01 10:13:27;;;;;;;25.13;15.27;;;8.40;99.90;;;;;;5076260;28;20499;-68
2023/03/01 10:15:57;;;;;;;20.17;13.87;;;7.90;99.90;;;;;;5076663;28;20449;-69
2023/03/01 10:18:28;;;;;;;27.57;14.33;;;8.10;99.90;;;;;;5076300;28;20449;-69
2023/03/01 10:20:58;;;;;;;29.57;14.13;;;8.10;99.90;;;;;;5076870;28;20489;-69
2023/03/01 10:23:28;;;;;;;22.87;15.10;;;8.30;99.90;;;;;;5075850;28;20481;-69
2023/03/01 10:26:13;;;;;;;20.23;13.43;;;8.20;99.90;;;;;;5076043;28;20458;-69
2023/03/01 10:28:51;;;;;;;19.57;13.47;;;8.10;99.90;;;;;;5076502;28;20459;-69
2023/03/01 10:31:22;;;;;;;22.87;14.23;;;8.00;99.90;;;;;;5075514;28;20452;-69
2023/03/01 10:33:54;;;;;;;19.67;13.30;;;8.20;99.90;;;;;;5078271;28;20476;-69
2023/03/01 10:36:21;;;;;;;28.60;14.80;;;8.30;99.90;;;;;;5077436;28;20462;-69
2023/03/01 10:38:52;;;;;;;20.27;12.90;;;8.40;99.90;;;;;;5077803;28;20463;-69
2023/03/01 10:41:19;;;;;;;20.13;13.73;;;8.40;99.90;;;;;;5074971;28;20489;-69
2023/03/01 10:43:47;;;;;;;19.33;13.37;;;8.70;99.90;;;;;;5075624;28;20473;-69
2023/03/01 10:46:24;;;;;;;19.20;13.20;;;8.70;99.90;;;;;;5075498;28;20957;-70
2023/03/01 10:49:07;;;;;;;20.17;13.27;;;9.00;99.90;;;;;;5075714;28;20493;-70
2023/03/01 10:51:34;;;;;;;22.40;14.20;;;9.10;99.90;;;;;;5077327;28;20960;-69
2023/03/01 10:54:04;;;;;;;21.50;13.67;;;9.20;99.90;;;;;;5076615;28;20460;-69
2023/03/01 10:56:48;;;;;;;19.00;13.90;;;9.20;99.90;;;;;;5076715;28;20451;-70
2023/03/01 10:59:26;;;;;;;17.83;12.43;;;9.40;99.90;;;;;;5076472;28;20484;-69
2023/03/01 11:02:05;;;;;;;20.77;13.03;;;9.50;99.90;;;;;;5076450;28;20481;-70
2023/03/01 11:04:31;;;;;;;20.87;13.30;;;9.70;99.90;;;;;;5077138;28;20470;-69
2023/03/01 11:07:02;;;;;;;18.97;12.70;;;9.70;99.90;;;;;;5076456;28;21010;-70
2023/03/01 11:09:37;;;;;;;17.63;12.50;;;9.90;99.90;;;;;;5076164;28;20855;-69
2023/03/01 11:12:06;;;;;;;19.20;12.47;;;9.60;99.90;;;;;;5077005;28;20520;-69
2023/03/01 11:14:37;;;;;;;18.87;12.20;;;9.50;99.90;;;;;;5077132;28;20476;-70
2023/03/01 11:17:06;;;;;;;19.37;12.67;;;9.60;99.90;;;;;;5077131;28;20498;-69
2023/03/01 11:19:33;;;;;;;24.37;13.67;;;9.50;99.90;;;;;;5076331;28;20450;-70
2023/03/01 11:22:04;;;;;;;20.10;12.70;;;9.80;99.90;;;;;;5076673;28;21364;-69
2023/03/01 11:24:44;;;;;;;19.67;11.93;;;9.90;99.90;;;;;;5076827;28;20464;-69
2023/03/01 11:27:21;;;;;;;20.73;12.80;;;10.00;99.90;;;;;;5076698;28;20953;-70
2023/03/01 11:29:53;;;;;;;20.17;12.67;;;10.20;99.90;;;;;;5076745;28;20458;-70
2023/03/01 11:32:24;;;;;;;18.30;12.50;;;10.00;99.90;;;;;;5075237;28;20446;-70
2023/03/01 11:34:55;;;;;;;20.97;12.70;;;10.20;99.90;;;;;;5077408;28;20466;-69
2023/03/01 11:37:33;;;;;;;21.40;13.20;;;10.50;99.90;;;;;;5076905;28;20441;-69
2023/03/01 11:40:12;;;;;;;19.20;12.33;;;10.60;99.90;;;;;;5075637;28;20988;-70
2023/03/01 11:42:57;;;;;;;19.50;12.90;;;10.20;99.90;;;;;;5076739;28;21236;-69
2023/03/01 11:45:27;;;;;;;18.90;11.87;;;10.40;99.90;;;;;;5076189;28;20494;-70
2023/03/01 11:48:07;;;;;;;18.30;11.93;;;10.40;99.90;;;;;;5075451;28;20446;-69
2023/03/01 11:50:40;;;;;;;15.23;11.27;;;10.40;99.90;;;;;;5075490;28;20525;-69
2023/03/01 11:53:32;;;;;;;18.03;12.37;;;10.50;99.90;;;;;;5076901;28;20360;-70
2023/03/01 11:56:07;;;;;;;17.40;11.20;;;10.40;99.90;;;;;;5076344;28;20470;-70
2023/03/01 11:58:52;;;;;;;18.20;11.97;;;10.60;99.90;;;;;;5076438;28;21198;-70
2023/03/01 12:01:33;;;;;;;18.13;11.60;;;10.70;99.90;;;;;;5077848;28;20890;-70
2023/03/01 12:04:34;;;;;;;16.13;11.10;;;10.40;99.90;;;;;;5077811;28;20471;-70
2023/03/01 12:07:03;;;;;;;15.97;11.70;;;10.80;99.90;;;;;;5076605;28;20516;-70
2023/03/01 12:09:48;;;;;;;21.33;12.53;;;11.00;99.90;;;;;;5073953;28;20469;-70
2023/03/01 12:12:38;;;;;;;27.23;12.37;;;10.60;99.90;;;;;;5075443;28;20457;-70
2023/03/01 12:15:30;;;;;;;15.77;11.13;;;10.50;99.90;;;;;;5076721;28;20445;-70
2023/03/01 12:18:19;;;;;;;15.30;10.97;;;10.50;99.90;;;;;;5076452;28;20445;-69
2023/03/01 12:20:57;;;;;;;19.20;11.83;;;10.60;99.90;;;;;;5078877;28;21007;-69
2023/03/01 12:23:43;;;;;;;20.07;12.70;;;10.60;99.90;;;;;;5080014;28;20491;-70
2023/03/01 12:26:18;;;;;;;16.20;11.30;;;10.60;99.90;;;;;;5080403;28;20506;-69
2023/03/01 12:28:55;;;;;;;19.57;11.87;;;10.40;99.90;;;;;;5079739;28;20523;-69
2023/03/01 12:31:45;;;;;;;19.45;12.65;;;10.30;99.90;;;;;;5077528;28;20523;-70
2023/03/01 12:34:30;;;;;;;18.77;12.83;;;10.10;99.90;;;;;;5080011;28;20223;-69
2023/03/01 12:37:12;;;;;;;18.17;12.47;;;10.00;99.90;;;;;;5078018;28;20540;-70
2023/03/01 12:39:52;;;;;;;17.27;11.63;;;10.20;99.90;;;;;;5077396;28;21195;-70
2023/03/01 12:42:29;;;;;;;22.00;12.00;;;10.30;99.90;;;;;;5078807;28;20568;-70
2023/03/01 12:45:17;;;;;;;15.90;11.43;;;10.60;99.90;;;;;;5078336;28;20475;-71